createdAt,value
2018-12-17T00:00:28.401Z,53.17
2018-12-17T00:02:58.210Z,53.63
2018-12-17T00:05:27.812Z,49.87
2018-12-17T00:07:57.532Z,49.67
2018-12-17T00:10:27.655Z,42.00
2018-12-17T00:12:57.269Z,35.27
2018-12-17T00:15:26.756Z,37.73
2018-12-17T00:17:56.365Z,39.00
2018-12-17T00:20:25.970Z,34.77
2018-12-17T00:22:55.529Z,33.53
2018-12-17T00:25:25.059Z,37.23
2018-12-17T00:27:54.670Z,36.03
2018-12-17T00:30:24.320Z,34.73
2018-12-17T00:32:53.771Z,33.13
2018-12-17T00:35:23.345Z,35.97
2018-12-17T00:37:53.026Z,32.53
2018-12-17T00:40:22.620Z,33.17
2018-12-17T00:42:52.248Z,33.27
2018-12-17T00:45:22.459Z,32.93
2018-12-17T00:47:51.923Z,31.40
2018-12-17T00:50:21.421Z,28.13
2018-12-17T00:52:50.977Z,24.53
2018-12-17T00:55:20.984Z,25.97
2018-12-17T00:57:50.624Z,22.90
2018-12-17T01:00:20.369Z,23.40
2018-12-17T01:02:49.915Z,19.20
2018-12-17T01:05:19.527Z,20.10
2018-12-17T01:07:49.233Z,18.73
2018-12-17T01:10:18.786Z,20.17
2018-12-17T01:12:48.535Z,20.73
2018-12-17T01:15:18.221Z,17.70
2018-12-17T01:17:47.823Z,18.83
2018-12-17T01:20:17.543Z,18.47
2018-12-17T01:22:47.236Z,20.23
2018-12-17T01:25:16.778Z,18.63
2018-12-17T01:27:46.467Z,22.30
2018-12-17T01:30:16.092Z,22.43
2018-12-17T01:32:46.522Z,22.20
2018-12-17T01:35:16.040Z,19.50
2018-12-17T01:37:45.651Z,21.67
2018-12-17T01:40:15.310Z,21.00
2018-12-17T01:42:44.958Z,19.00
2018-12-17T01:45:14.723Z,18.73
2018-12-17T01:47:44.332Z,17.10
2018-12-17T01:50:14.071Z,18.97
2018-12-17T01:52:43.688Z,17.23
2018-12-17T01:55:13.099Z,16.27
2018-12-17T01:57:42.599Z,16.67
2018-12-17T02:00:12.154Z,17.47
2018-12-17T02:02:41.724Z,17.47
2018-12-17T02:05:11.709Z,18.23
2018-12-17T02:07:41.191Z,19.03
2018-12-17T02:10:10.942Z,21.30
2018-12-17T02:12:40.565Z,22.70
2018-12-17T02:15:10.246Z,23.67
2018-12-17T02:17:40.495Z,23.97
2018-12-17T02:20:10.102Z,24.37
2018-12-17T02:22:39.703Z,25.13
2018-12-17T02:25:09.356Z,23.53
2018-12-17T02:27:38.993Z,24.83
2018-12-17T02:30:08.660Z,23.87
2018-12-17T02:32:38.253Z,23.47
2018-12-17T02:35:08.117Z,25.07
2018-12-17T02:37:37.613Z,22.20
2018-12-17T02:40:07.930Z,22.90
2018-12-17T02:42:37.687Z,21.70
2018-12-17T02:45:07.369Z,22.13
2018-12-17T02:47:37.064Z,22.20
2018-12-17T02:50:07.297Z,21.20
2018-12-17T02:52:36.855Z,19.97
2018-12-17T02:55:07.203Z,18.63
2018-12-17T02:57:37.135Z,17.63
2018-12-17T03:00:07.991Z,16.43
2018-12-17T03:02:37.889Z,17.33
2018-12-17T03:05:08.101Z,16.83
2018-12-17T03:07:38.003Z,15.93
2018-12-17T03:10:08.023Z,17.43
2018-12-17T03:12:37.844Z,17.37
2018-12-17T03:15:07.967Z,15.57
2018-12-17T03:17:37.795Z,17.00
2018-12-17T03:20:07.583Z,16.00
2018-12-17T03:22:37.104Z,16.53
2018-12-17T03:25:06.873Z,16.63
2018-12-17T03:27:37.399Z,16.43
2018-12-17T03:30:07.794Z,18.40
2018-12-17T03:32:37.486Z,17.33
2018-12-17T03:35:06.987Z,17.10
2018-12-17T03:37:36.717Z,17.73
2018-12-17T03:40:06.588Z,17.40
2018-12-17T03:42:36.100Z,17.83
2018-12-17T03:45:06.096Z,18.87
2018-12-17T03:47:35.839Z,17.77
2018-12-17T03:50:06.283Z,17.80
2018-12-17T03:52:35.872Z,17.23
2018-12-17T03:55:05.640Z,17.80
2018-12-17T03:57:35.309Z,18.33
2018-12-17T04:00:05.924Z,17.10
2018-12-17T04:02:35.586Z,17.53
2018-12-17T04:05:05.294Z,16.90
2018-12-17T04:07:34.940Z,16.67
2018-12-17T04:10:04.779Z,15.87
2018-12-17T04:12:34.492Z,16.13
2018-12-17T04:15:04.139Z,17.33
2018-12-17T04:17:33.607Z,16.67
2018-12-17T04:20:03.147Z,15.97
2018-12-17T04:22:32.795Z,14.47
2018-12-17T04:25:02.347Z,14.87
2018-12-17T04:27:32.584Z,14.50
2018-12-17T04:30:02.205Z,13.67
2018-12-17T04:32:31.777Z,16.63
2018-12-17T04:35:01.314Z,16.70
2018-12-17T04:37:30.982Z,16.33
2018-12-17T04:40:00.690Z,16.60
2018-12-17T04:42:30.339Z,14.77
2018-12-17T04:45:00.109Z,16.53
2018-12-17T04:47:29.632Z,17.17
2018-12-17T04:49:59.463Z,16.00
2018-12-17T04:52:29.323Z,18.03
2018-12-17T04:54:58.887Z,15.60
2018-12-17T04:57:28.551Z,15.77
2018-12-17T04:59:58.111Z,15.97
2018-12-17T05:02:27.720Z,14.90
2018-12-17T05:04:57.411Z,16.93
2018-12-17T05:07:27.004Z,16.63
2018-12-17T05:09:56.520Z,15.40
2018-12-17T05:12:26.263Z,15.50
2018-12-17T05:14:55.824Z,15.37
2018-12-17T05:17:25.450Z,15.27
2018-12-17T05:19:55.058Z,15.70
2018-12-17T05:22:24.897Z,17.30
2018-12-17T05:24:54.587Z,17.13
2018-12-17T05:27:24.550Z,16.70
2018-12-17T05:29:54.844Z,17.03
2018-12-17T05:32:24.397Z,15.40
2018-12-17T05:34:54.066Z,17.07
2018-12-17T05:37:23.682Z,17.83
2018-12-17T05:39:53.209Z,17.33
2018-12-17T05:42:23.157Z,17.47
2018-12-17T05:44:52.839Z,17.40
2018-12-17T05:47:22.422Z,17.40
2018-12-17T05:49:52.041Z,18.30
2018-12-17T05:52:21.912Z,18.60
2018-12-17T05:54:51.547Z,19.00
2018-12-17T05:57:21.005Z,19.33
2018-12-17T05:59:50.702Z,19.20
2018-12-17T06:02:20.548Z,20.37
2018-12-17T06:04:50.232Z,19.07
2018-12-17T06:07:19.846Z,19.13
2018-12-17T06:09:49.456Z,19.87
2018-12-17T06:12:19.258Z,18.17
2018-12-17T06:14:49.302Z,18.17
2018-12-17T06:17:18.937Z,17.10
2018-12-17T06:19:48.480Z,25.03
2018-12-17T06:22:18.356Z,17.37
2018-12-17T06:24:48.117Z,19.00
2018-12-17T06:27:18.657Z,17.70
2018-12-17T06:29:48.211Z,16.60
2018-12-17T06:32:17.681Z,21.70
2018-12-17T06:34:47.236Z,18.43
2018-12-17T06:37:16.851Z,17.57
2018-12-17T06:39:46.536Z,17.80
2018-12-17T06:42:16.213Z,17.50
2018-12-17T06:44:45.877Z,20.47
2018-12-17T06:47:15.495Z,18.40
2018-12-17T06:49:45.725Z,19.03
2018-12-17T06:52:15.379Z,17.77
2018-12-17T06:54:45.007Z,18.13
2018-12-17T06:57:14.680Z,18.10
2018-12-17T06:59:44.276Z,20.00
2018-12-17T07:02:14.152Z,20.53
2018-12-17T07:04:43.780Z,27.67
2018-12-17T07:07:13.434Z,35.20
2018-12-17T07:09:43.174Z,20.03
2018-12-17T07:12:12.661Z,21.07
2018-12-17T07:14:42.283Z,21.83
2018-12-17T07:17:12.151Z,20.47
2018-12-17T07:19:41.976Z,21.43
2018-12-17T07:22:11.623Z,21.70
2018-12-17T07:24:41.245Z,20.50
2018-12-17T07:27:10.908Z,19.73
2018-12-17T07:29:40.417Z,19.53
2018-12-17T07:32:10.279Z,19.70
2018-12-17T07:34:39.896Z,19.23
2018-12-17T07:37:09.545Z,18.80
2018-12-17T07:39:39.290Z,19.30
2018-12-17T07:42:09.023Z,21.27
2018-12-17T07:44:38.806Z,17.73
2018-12-17T07:47:08.401Z,19.07
2018-12-17T07:49:37.870Z,19.57
2018-12-17T07:52:07.490Z,19.17
2018-12-17T07:54:37.090Z,17.57
2018-12-17T07:57:06.832Z,18.47
2018-12-17T07:59:36.643Z,18.47
2018-12-17T08:02:06.488Z,18.47
2018-12-17T08:04:36.021Z,18.23
2018-12-17T08:07:05.741Z,18.70
2018-12-17T08:09:35.355Z,18.30
2018-12-17T08:12:05.971Z,18.73
2018-12-17T08:14:35.666Z,18.40
2018-12-17T08:17:06.299Z,19.30
2018-12-17T08:19:36.681Z,18.30
2018-12-17T08:22:06.263Z,18.93
2018-12-17T08:24:35.716Z,19.20
2018-12-17T08:27:05.345Z,17.87
2018-12-17T08:29:35.171Z,17.93
2018-12-17T08:32:04.802Z,16.17
2018-12-17T08:34:34.392Z,16.80
2018-12-17T08:37:04.058Z,15.93
2018-12-17T08:39:33.685Z,21.63
2018-12-17T08:42:03.206Z,20.17
2018-12-17T08:44:32.814Z,15.17
2018-12-17T08:47:32.427Z,17.60
2018-12-17T08:50:02.109Z,16.40
2018-12-17T08:52:32.145Z,16.93
2018-12-17T08:55:02.179Z,18.07
2018-12-17T08:57:37.808Z,18.90
2018-12-17T09:00:10.781Z,17.40
2018-12-17T09:02:35.910Z,17.17
2018-12-17T09:05:06.181Z,18.13
2018-12-17T09:07:36.005Z,17.27
2018-12-17T09:10:06.788Z,17.37
2018-12-17T09:12:36.391Z,18.53
2018-12-17T09:15:06.822Z,18.10
2018-12-17T09:17:36.675Z,17.80
2018-12-17T09:20:07.110Z,19.33
2018-12-17T09:22:36.718Z,18.37
2018-12-17T09:25:07.387Z,21.23
2018-12-17T09:27:36.938Z,20.37
2018-12-17T09:30:07.644Z,20.60
2018-12-17T09:32:37.291Z,19.50
2018-12-17T09:35:07.269Z,20.23
2018-12-17T09:37:37.018Z,19.97
2018-12-17T09:40:07.486Z,21.30
2018-12-17T09:42:37.386Z,21.23
2018-12-17T09:45:07.875Z,19.50
2018-12-17T09:47:37.601Z,19.37
2018-12-17T09:50:07.504Z,19.20
2018-12-17T09:52:37.292Z,21.53
2018-12-17T09:55:07.265Z,23.50
2018-12-17T09:57:37.010Z,23.93
2018-12-17T10:00:07.934Z,18.93
2018-12-17T10:02:37.583Z,18.37
2018-12-17T10:05:07.647Z,20.43
2018-12-17T10:07:37.483Z,19.73
2018-12-17T10:10:08.009Z,19.10
2018-12-17T10:12:37.949Z,20.57
2018-12-17T10:15:08.961Z,19.23
2018-12-17T10:17:38.741Z,22.17
2018-12-17T10:20:08.518Z,20.50
2018-12-17T10:22:38.338Z,22.50
2018-12-17T10:25:08.200Z,21.40
2018-12-17T10:27:37.985Z,21.87
2018-12-17T10:30:08.322Z,18.43
2018-12-17T10:32:38.136Z,20.17
2018-12-17T10:35:07.907Z,18.63
2018-12-17T10:37:37.861Z,18.83
2018-12-17T10:40:09.946Z,19.23
2018-12-17T10:42:39.684Z,18.37
2018-12-17T10:45:10.069Z,20.43
2018-12-17T10:47:39.735Z,21.00
2018-12-17T10:50:09.895Z,22.13
2018-12-17T10:52:39.636Z,24.63
2018-12-17T10:55:09.559Z,17.93
2018-12-17T10:57:39.984Z,21.13
2018-12-17T11:00:16.962Z,21.07
2018-12-17T11:02:46.828Z,18.10
2018-12-17T11:05:17.755Z,20.53
2018-12-17T11:07:47.632Z,19.23
2018-12-17T11:10:17.287Z,20.43
2018-12-17T11:12:47.231Z,21.60
2018-12-17T11:15:17.013Z,21.40
2018-12-17T11:17:46.908Z,21.23
2018-12-17T11:20:16.893Z,19.93
2018-12-17T11:22:46.702Z,19.50
2018-12-17T11:25:16.221Z,23.33
2018-12-17T11:27:45.917Z,21.53
2018-12-17T11:30:15.519Z,26.97
2018-12-17T11:32:45.306Z,21.83
2018-12-17T11:35:15.022Z,23.30
2018-12-17T11:37:44.774Z,21.03
2018-12-17T11:40:14.365Z,21.93
2018-12-17T11:42:44.123Z,21.30
2018-12-17T11:45:14.673Z,22.17
2018-12-17T11:47:44.524Z,20.93
2018-12-17T11:50:15.033Z,21.63
2018-12-17T11:52:44.575Z,22.17
2018-12-17T11:55:14.253Z,22.93
2018-12-17T11:58:07.417Z,22.80
2018-12-17T12:00:37.309Z,21.37
2018-12-17T12:03:06.916Z,21.23
2018-12-17T12:05:36.890Z,23.00
2018-12-17T12:08:06.409Z,23.03
2018-12-17T12:10:36.222Z,23.67
2018-12-17T12:13:06.728Z,23.37
2018-12-17T12:15:36.600Z,24.03
2018-12-17T12:18:06.663Z,30.53
2018-12-17T12:20:36.443Z,22.60
2018-12-17T12:23:06.443Z,23.13
2018-12-17T12:25:36.574Z,24.87
2018-12-17T12:28:06.533Z,23.83
2018-12-17T12:30:36.317Z,23.70
2018-12-17T12:33:06.178Z,23.73
2018-12-17T12:35:35.929Z,24.77
2018-12-17T12:38:05.765Z,24.47
2018-12-17T12:40:35.482Z,25.30
2018-12-17T12:43:05.284Z,24.63
2018-12-17T12:45:34.940Z,25.80
2018-12-17T12:48:04.628Z,24.37
2018-12-17T12:50:34.454Z,26.73
2018-12-17T12:53:04.332Z,25.53
2018-12-17T12:55:34.030Z,26.20
2018-12-17T12:58:04.061Z,25.13
2018-12-17T13:00:34.171Z,24.60
2018-12-17T13:03:04.114Z,24.23
2018-12-17T13:05:34.141Z,25.43
2018-12-17T13:08:03.972Z,24.33
2018-12-17T13:10:33.666Z,25.90
2018-12-17T13:13:03.387Z,26.17
2018-12-17T13:15:33.041Z,24.97
2018-12-17T13:18:03.011Z,25.60
2018-12-17T13:20:32.965Z,27.23
2018-12-17T13:23:02.635Z,25.90
2018-12-17T13:25:36.659Z,26.67
2018-12-17T13:28:06.304Z,25.80
2018-12-17T13:30:36.089Z,26.67
2018-12-17T13:33:05.937Z,26.60
2018-12-17T13:35:35.633Z,29.53
2018-12-17T13:38:05.497Z,27.97
2018-12-17T13:40:35.553Z,30.80
2018-12-17T13:43:05.734Z,30.33
2018-12-17T13:45:35.407Z,28.17
2018-12-17T13:48:14.073Z,28.20
2018-12-17T13:50:43.817Z,27.33
2018-12-17T13:53:18.604Z,32.70
2018-12-17T13:55:48.224Z,28.37
2018-12-17T13:58:18.180Z,27.60
2018-12-17T14:00:47.731Z,28.20
2018-12-17T14:03:17.749Z,27.20
2018-12-17T14:05:47.460Z,28.93
2018-12-17T14:08:17.287Z,27.50
2018-12-17T14:10:51.150Z,29.80
2018-12-17T14:13:21.037Z,30.50
2018-12-17T14:15:57.760Z,30.37
2018-12-17T14:18:32.233Z,33.10
2018-12-17T14:21:07.069Z,31.23
2018-12-17T14:23:36.639Z,30.50
2018-12-17T14:26:07.195Z,31.27
2018-12-17T14:28:36.817Z,32.50
2018-12-17T14:31:07.820Z,33.40
2018-12-17T14:33:37.641Z,36.67
2018-12-17T14:36:09.310Z,35.97
2018-12-17T14:38:40.180Z,34.27
2018-12-17T14:41:09.937Z,32.67
2018-12-17T14:43:39.857Z,33.93
2018-12-17T14:46:09.728Z,32.37
2018-12-17T14:48:39.355Z,32.77
2018-12-17T14:51:09.243Z,30.40
2018-12-17T14:53:39.025Z,32.90
2018-12-17T14:56:08.709Z,28.70
2018-12-17T14:58:44.499Z,27.60
2018-12-17T15:01:10.189Z,23.97
2018-12-17T15:03:40.048Z,25.43
2018-12-17T15:06:09.814Z,25.53
2018-12-17T15:08:39.419Z,24.90
2018-12-17T15:11:10.302Z,24.90
2018-12-17T15:13:40.112Z,25.87
2018-12-17T15:16:10.601Z,27.00
2018-12-17T15:18:40.124Z,27.67
2018-12-17T15:21:09.896Z,29.10
2018-12-17T15:23:39.571Z,30.13
2018-12-17T15:26:09.415Z,30.90
2018-12-17T15:28:39.055Z,31.10
2018-12-17T15:31:08.722Z,29.33
2018-12-17T15:33:38.474Z,31.17
2018-12-17T15:36:08.213Z,31.50
2018-12-17T15:38:37.970Z,32.00
2018-12-17T15:41:08.598Z,31.87
2018-12-17T15:43:38.893Z,34.13
2018-12-17T15:46:08.593Z,34.03
2018-12-17T15:48:38.656Z,36.60
2018-12-17T15:51:08.488Z,36.40
2018-12-17T15:53:38.066Z,35.60
2018-12-17T15:56:07.969Z,35.80
2018-12-17T15:58:37.794Z,37.07
2018-12-17T16:01:07.395Z,37.67
2018-12-17T16:03:37.491Z,38.03
2018-12-17T16:06:07.123Z,37.97
2018-12-17T16:08:36.880Z,33.47
2018-12-17T16:11:06.415Z,35.23
2018-12-17T16:13:36.199Z,33.47
2018-12-17T16:16:06.160Z,35.93
2018-12-17T16:18:35.831Z,38.50
2018-12-17T16:21:05.594Z,38.73
2018-12-17T16:23:35.506Z,37.50
2018-12-17T16:26:05.617Z,36.03
2018-12-17T16:28:35.388Z,33.67
2018-12-17T16:31:05.350Z,32.00
2018-12-17T16:33:35.173Z,37.23
2018-12-17T16:36:05.037Z,38.17
2018-12-17T16:38:34.765Z,41.43
2018-12-17T16:41:04.376Z,43.00
2018-12-17T16:43:34.190Z,41.77
2018-12-17T16:46:04.062Z,43.43
2018-12-17T16:48:33.566Z,44.63
2018-12-17T16:51:06.912Z,44.10
2018-12-17T16:53:36.510Z,46.27
2018-12-17T16:56:06.165Z,42.07
2018-12-17T16:58:36.394Z,41.60
2018-12-17T17:01:06.123Z,40.90
2018-12-17T17:03:36.941Z,38.77
2018-12-17T17:06:06.936Z,37.80
2018-12-17T17:08:36.616Z,36.80
2018-12-17T17:11:06.523Z,38.67
2018-12-17T17:13:36.357Z,37.13
2018-12-17T17:16:06.125Z,36.07
2018-12-17T17:18:35.910Z,35.40
2018-12-17T17:21:05.823Z,34.70
2018-12-17T17:23:36.455Z,32.60
2018-12-17T17:26:06.304Z,37.37
2018-12-17T17:28:36.237Z,41.33
2018-12-17T17:31:06.042Z,36.13
2018-12-17T17:33:35.694Z,34.03
2018-12-17T17:36:05.358Z,33.33
2018-12-17T17:38:35.046Z,34.73
2018-12-17T17:41:05.362Z,32.47
2018-12-17T17:43:35.387Z,33.33
2018-12-17T17:46:05.116Z,33.37
2018-12-17T17:48:34.784Z,34.10
2018-12-17T17:51:04.530Z,33.90
2018-12-17T17:53:34.169Z,34.17
2018-12-17T17:56:03.837Z,38.70
2018-12-17T17:58:34.257Z,34.60
2018-12-17T18:01:04.414Z,36.70
2018-12-17T18:03:34.156Z,37.37
2018-12-17T18:06:03.829Z,37.07
2018-12-17T18:08:33.594Z,36.80
2018-12-17T18:11:03.273Z,38.73
2018-12-17T18:13:33.056Z,36.80
2018-12-17T18:16:03.155Z,35.83
2018-12-17T18:18:33.131Z,33.77
2018-12-17T18:21:03.163Z,34.60
2018-12-17T18:23:32.959Z,36.33
2018-12-17T18:26:02.546Z,33.80
2018-12-17T18:28:32.298Z,33.57
2018-12-17T18:31:03.106Z,35.77
2018-12-17T18:33:33.032Z,35.20
2018-12-17T18:36:02.827Z,35.03
2018-12-17T18:38:32.586Z,36.13
2018-12-17T18:41:02.487Z,36.10
2018-12-17T18:43:32.192Z,37.87
2018-12-17T18:46:01.792Z,37.50
2018-12-17T18:48:31.552Z,36.93
2018-12-17T18:51:01.296Z,34.23
2018-12-17T18:53:31.045Z,34.23
2018-12-17T18:56:00.704Z,33.20
2018-12-17T18:58:30.720Z,34.73
2018-12-17T19:01:00.459Z,38.33
2018-12-17T19:03:30.125Z,39.73
2018-12-17T19:05:59.914Z,35.40
2018-12-17T19:08:29.708Z,36.87
2018-12-17T19:10:59.377Z,34.67
2018-12-17T19:13:28.916Z,34.80
2018-12-17T19:15:58.477Z,35.97
2018-12-17T19:18:29.047Z,36.27
2018-12-17T19:20:59.034Z,34.50
2018-12-17T19:23:28.582Z,38.43
2018-12-17T19:25:58.154Z,40.37
2018-12-17T19:28:27.890Z,38.50
2018-12-17T19:30:57.678Z,37.40
2018-12-17T19:33:27.369Z,41.30
2018-12-17T19:35:57.116Z,38.17
2018-12-17T19:38:26.895Z,38.40
2018-12-17T19:40:56.848Z,38.73
2018-12-17T19:43:26.737Z,48.47
2018-12-17T19:45:56.677Z,50.90
2018-12-17T19:48:26.717Z,46.60
2018-12-17T19:50:56.569Z,39.83
2018-12-17T19:53:26.443Z,45.93
2018-12-17T19:55:56.215Z,39.70
2018-12-17T19:58:25.882Z,41.70
2018-12-17T20:00:57.910Z,41.73
2018-12-17T20:03:27.663Z,50.63
2018-12-17T20:05:57.226Z,58.10
2018-12-17T20:08:27.025Z,56.07
2018-12-17T20:10:56.864Z,53.10
2018-12-17T20:13:26.881Z,54.17
2018-12-17T20:15:56.920Z,52.23
2018-12-17T20:18:26.556Z,50.03
2018-12-17T20:20:56.214Z,48.13
2018-12-17T20:23:26.085Z,51.70
2018-12-17T20:25:55.792Z,53.03
2018-12-17T20:28:25.683Z,51.77
2018-12-17T20:30:55.712Z,52.50
2018-12-17T20:33:25.351Z,58.03
2018-12-17T20:35:55.059Z,49.83
2018-12-17T20:38:24.719Z,50.00
2018-12-17T20:40:54.634Z,45.40
2018-12-17T20:43:24.296Z,42.40
2018-12-17T20:45:53.930Z,42.70
2018-12-17T20:48:23.924Z,44.67
2018-12-17T20:50:53.767Z,42.13
2018-12-17T20:53:23.741Z,42.30
2018-12-17T20:55:53.674Z,40.77
2018-12-17T20:58:23.458Z,38.57
2018-12-17T21:00:54.726Z,38.60
2018-12-17T21:03:24.694Z,34.23
2018-12-17T21:05:54.420Z,34.00
2018-12-17T21:08:24.199Z,28.70
2018-12-17T21:10:53.997Z,29.87
2018-12-17T21:13:23.701Z,28.40
2018-12-17T21:15:53.569Z,27.83
2018-12-17T21:18:23.250Z,25.73
2018-12-17T21:20:53.073Z,28.40
2018-12-17T21:23:23.388Z,27.57
2018-12-17T21:25:53.234Z,25.93
2018-12-17T21:28:23.013Z,24.83
2018-12-17T21:30:53.892Z,23.13
2018-12-17T21:33:23.579Z,24.67
2018-12-17T21:35:53.392Z,23.10
2018-12-17T21:38:23.295Z,22.40
2018-12-17T21:40:53.231Z,24.13
2018-12-17T21:43:23.105Z,23.73
2018-12-17T21:45:52.866Z,26.93
2018-12-17T21:48:22.471Z,39.57
2018-12-17T21:50:53.332Z,25.87
2018-12-17T21:53:23.157Z,22.37
2018-12-17T21:55:52.860Z,21.67
2018-12-17T21:58:22.941Z,19.67
2018-12-17T22:00:52.648Z,19.13
2018-12-17T22:03:22.956Z,17.93
2018-12-17T22:05:52.657Z,18.57
2018-12-17T22:08:23.201Z,17.97
2018-12-17T22:10:53.032Z,17.20
2018-12-17T22:13:22.591Z,16.67
2018-12-17T22:15:52.443Z,17.00
2018-12-17T22:18:22.131Z,16.20
2018-12-17T22:20:52.673Z,16.50
2018-12-17T22:23:22.634Z,14.50
2018-12-17T22:25:52.279Z,16.20
2018-12-17T22:28:22.089Z,16.07
2018-12-17T22:30:51.659Z,15.50
2018-12-17T22:33:21.632Z,15.00
2018-12-17T22:35:51.356Z,14.50
2018-12-17T22:38:21.262Z,14.87
2018-12-17T22:40:51.213Z,15.10
2018-12-17T22:43:21.083Z,14.90
2018-12-17T22:45:50.856Z,14.67
2018-12-17T22:48:20.544Z,14.63
2018-12-17T22:50:50.268Z,16.20
2018-12-17T22:53:20.064Z,15.97
2018-12-17T22:55:49.883Z,20.70
2018-12-17T22:58:19.561Z,15.40
2018-12-17T23:00:49.737Z,16.03
2018-12-17T23:03:19.368Z,15.47
2018-12-17T23:05:51.224Z,15.47
2018-12-17T23:08:20.932Z,13.80
2018-12-17T23:11:01.295Z,14.00
2018-12-17T23:13:41.647Z,15.10
2018-12-17T23:16:22.211Z,14.90
2018-12-17T23:18:50.382Z,14.40
2018-12-17T23:21:21.059Z,13.40
2018-12-17T23:23:50.716Z,58.50
2018-12-17T23:26:20.179Z,18.53
2018-12-17T23:28:50.124Z,15.13
2018-12-17T23:31:19.804Z,15.45
2018-12-17T23:33:49.743Z,15.00
2018-12-17T23:36:19.780Z,13.60
2018-12-17T23:38:49.671Z,14.53
2018-12-17T23:41:19.574Z,14.87
2018-12-17T23:43:49.829Z,15.57
2018-12-17T23:46:20.316Z,15.37
2018-12-17T23:48:49.831Z,19.03
2018-12-17T23:51:19.867Z,16.87
2018-12-17T23:53:49.418Z,15.03
2018-12-17T23:56:19.355Z,15.73
2018-12-17T23:58:49.226Z,17.23
